Stations météo

réclame
Mon MeteoGroup
Weeze/Niederrhein, Allemagne (10405): Température de l'air & dewpoint: 11.07.2019 12:00:00 - 17.07.2019 12:00:00 (CEST)Weeze/Niederrhein, Allemagne (10405): Vitesse du vent: 11.07.2019 12:00:00 - 17.07.2019 12:00:00 (CEST)Weeze/Niederrhein, Allemagne (10405): Direction du vent: 11.07.2019 12:00:00 - 17.07.2019 12:00:00 (CEST)Weeze/Niederrhein, Allemagne (10405): visibility: 11.07.2019 12:00:00 - 17.07.2019 12:00:00 (CEST)
Date & Time tt [°C] td [°C] ff [km/h] ff [knt] dd vv [km]
17.07.2019 12:00:00 19,0 12,0 4 2 - 10
17.07.2019 11:00:00 19,0 13,0 4 2 - 10
17.07.2019 10:00:00 17,0 13,0 8 4 SSE 10
17.07.2019 09:00:00 17,0 13,0 5 3 SSE 10
17.07.2019 08:00:00 15,0 13,0 8 4 SSE 10
17.07.2019 07:00:00 14,0 13,0 5 3 - 10
17.07.2019 06:00:00 13,0 12,0 2 1 - 10
17.07.2019 05:00:00 14,0 13,0 5 3 - 10
17.07.2019 04:00:00 - - - - - -
17.07.2019 03:00:00 - - - - - -
17.07.2019 02:00:00 - - - - - -
17.07.2019 01:00:00 - - - - - -
17.07.2019 00:00:00 12,0 11,0 0 0 N 10
16.07.2019 23:00:00 14,0 12,0 2 1 - 10
16.07.2019 22:00:00 17,0 12,0 2 1 - 10
16.07.2019 21:00:00 18,0 12,0 5 3 - 10
16.07.2019 20:00:00 20,0 12,0 5 3 - 10
16.07.2019 19:00:00 19,0 12,0 5 3 - 10
16.07.2019 18:00:00 20,0 12,0 5 3 - 10
16.07.2019 17:00:00 19,0 11,0 9 5 W 10
16.07.2019 16:00:00 19,0 11,0 8 4 - 10
16.07.2019 15:00:00 18,0 11,0 8 4 - 10
16.07.2019 14:00:00 18,0 11,0 8 4 W 10
16.07.2019 13:00:00 17,0 12,0 9 5 WSW 10
16.07.2019 12:00:00 16,0 11,0 11 6 WNW 10
16.07.2019 11:00:00 16,0 11,0 11 6 W 10
16.07.2019 10:00:00 15,0 11,0 9 5 W 10
16.07.2019 09:00:00 15,0 12,0 5 3 - 10
16.07.2019 08:00:00 14,0 11,0 5 3 - 10
16.07.2019 07:00:00 13,0 12,0 4 2 - 10
16.07.2019 06:00:00 13,0 11,0 2 1 - 10
16.07.2019 05:00:00 12,0 11,0 4 2 W 10
16.07.2019 04:00:00 - - - - - -
16.07.2019 03:00:00 - - - - - -
16.07.2019 02:00:00 - - - - - -
16.07.2019 01:00:00 12,0 10,0 0 0 N 10
16.07.2019 00:00:00 14,0 10,0 2 1 NW 10
15.07.2019 23:00:00 15,0 11,0 0 0 N 10
15.07.2019 22:00:00 17,0 12,0 4 2 - 10
15.07.2019 21:00:00 18,0 12,0 9 5 NW 10
15.07.2019 20:00:00 18,0 11,0 9 5 NW 10
15.07.2019 19:00:00 20,0 11,0 8 4 NW 10
15.07.2019 18:00:00 19,0 10,0 9 5 NNW 10
15.07.2019 17:00:00 18,0 10,0 8 4 - 10
15.07.2019 16:00:00 18,0 10,0 15 8 WNW 10
15.07.2019 15:00:00 16,0 11,0 13 7 NW 10
15.07.2019 14:00:00 16,0 11,0 9 5 WNW 10
15.07.2019 13:00:00 14,0 12,0 8 4 NNW 8
15.07.2019 12:00:00 15,0 12,0 9 5 NW 10
15.07.2019 11:00:00 15,0 11,0 5 3 - 10
15.07.2019 10:00:00 15,0 10,0 8 4 NNE 10
15.07.2019 09:00:00 14,0 12,0 8 4 WNW 10
15.07.2019 08:00:00 14,0 12,0 4 2 - 10
15.07.2019 07:00:00 14,0 11,0 0 0 N 10
15.07.2019 06:00:00 13,0 11,0 0 0 N 10
15.07.2019 05:00:00 14,0 10,0 0 0 N 10
15.07.2019 04:00:00 - - - - - -
15.07.2019 03:00:00 - - - - - -
15.07.2019 02:00:00 - - - - - -
15.07.2019 01:00:00 - - - - - -
15.07.2019 00:00:00 14,0 11,0 0 0 N 10
14.07.2019 23:00:00 16,0 12,0 8 4 - 10
14.07.2019 22:00:00 17,0 12,0 5 3 - 10
14.07.2019 21:00:00 18,0 12,0 8 4 NW 10
14.07.2019 20:00:00 18,0 12,0 8 4 - 10
14.07.2019 19:00:00 18,0 12,0 9 5 - 10
14.07.2019 18:00:00 19,0 12,0 8 4 - 10
14.07.2019 17:00:00 18,0 12,0 9 5 NW 10
14.07.2019 16:00:00 19,0 12,0 9 5 N 10
14.07.2019 15:00:00 18,0 12,0 9 5 WNW 10
14.07.2019 14:00:00 18,0 12,0 9 5 NNW 10
14.07.2019 13:00:00 17,0 11,0 8 4 N 10
14.07.2019 12:00:00 16,0 11,0 8 4 - 10
14.07.2019 11:00:00 16,0 10,0 8 4 NNW 10
14.07.2019 10:00:00 15,0 11,0 5 3 - 10
14.07.2019 09:00:00 15,0 11,0 8 4 - 10
14.07.2019 08:00:00 15,0 11,0 5 3 - 10
14.07.2019 07:00:00 14,0 11,0 5 3 - 10
14.07.2019 06:00:00 14,0 11,0 5 3 NW 10
14.07.2019 05:00:00 15,0 11,0 0 0 N 10
14.07.2019 04:00:00 - - - - - -
14.07.2019 03:00:00 - - - - - -
14.07.2019 02:00:00 - - - - - -
14.07.2019 01:00:00 - - - - - -
14.07.2019 00:00:00 15,0 13,0 8 4 NW 10
13.07.2019 23:00:00 17,0 13,0 11 6 NNW 10
13.07.2019 22:00:00 17,0 12,0 4 2 - 10
13.07.2019 21:00:00 18,0 13,0 15 8 NW 10
13.07.2019 20:00:00 18,0 14,0 13 7 NW 10
13.07.2019 19:00:00 18,0 15,0 16 9 NW 10
13.07.2019 18:00:00 20,0 14,0 11 6 NW 10
13.07.2019 17:00:00 20,0 14,0 13 7 NW 10
13.07.2019 16:00:00 21,0 14,0 11 6 NNW 10
13.07.2019 15:00:00 21,0 13,0 9 5 WNW 10
13.07.2019 14:00:00 20,0 14,0 8 4 NNW 10
13.07.2019 13:00:00 20,0 14,0 5 3 - 10
13.07.2019 12:00:00 19,0 14,0 9 5 N 10
13.07.2019 11:00:00 18,0 15,0 5 3 - 10
13.07.2019 10:00:00 16,0 16,0 4 2 - 10
13.07.2019 09:00:00 17,0 15,0 11 6 WNW 9
13.07.2019 08:00:00 16,0 15,0 11 6 W 9
13.07.2019 07:00:00 16,0 15,0 9 5 WNW 9
13.07.2019 06:00:00 16,0 15,0 9 5 WNW 7
13.07.2019 05:00:00 16,0 15,0 11 6 WNW 9
13.07.2019 04:00:00 - - - - - -
13.07.2019 03:00:00 - - - - - -
13.07.2019 02:00:00 - - - - - -
13.07.2019 01:00:00 - - - - - -
13.07.2019 00:00:00 17,0 14,0 11 6 WNW 10
12.07.2019 23:00:00 17,0 15,0 9 5 WNW 10
12.07.2019 22:00:00 18,0 14,0 8 4 NW 10
12.07.2019 21:00:00 19,0 14,0 9 5 NW 10
12.07.2019 20:00:00 19,0 14,0 9 5 - 10
12.07.2019 19:00:00 19,0 15,0 11 6 NW 10
12.07.2019 18:00:00 19,0 15,0 15 8 NW 10
12.07.2019 17:00:00 19,0 15,0 18 10 NW 10
12.07.2019 16:00:00 18,0 16,0 13 7 NW 10
12.07.2019 15:00:00 19,0 16,0 16 9 W 9
12.07.2019 14:00:00 21,0 15,0 15 8 WNW 10
12.07.2019 13:00:00 21,0 15,0 18 10 W 10
12.07.2019 12:00:00 19,0 16,0 8 4 SW 10
12.07.2019 11:00:00 19,0 15,0 11 6 WSW 10
12.07.2019 10:00:00 17,0 16,0 2 1 - 6
12.07.2019 09:00:00 17,0 15,0 9 5 W 9
12.07.2019 08:00:00 17,0 15,0 0 0 N 6
12.07.2019 07:00:00 15,0 15,0 5 3 - 7
12.07.2019 06:00:00 15,0 14,0 4 2 - 6
12.07.2019 05:00:00 15,0 14,0 2 1 - 6
12.07.2019 04:00:00 - - - - - -
12.07.2019 03:00:00 - - - - - -
12.07.2019 02:00:00 - - - - - -
12.07.2019 01:00:00 - - - - - -
12.07.2019 00:00:00 18,0 15,0 2 1 - 10
11.07.2019 23:00:00 19,0 15,0 0 0 N 10
11.07.2019 22:00:00 21,0 15,0 5 3 NW 10
11.07.2019 21:00:00 22,0 14,0 11 6 NW 10
11.07.2019 20:00:00 23,0 14,0 11 6 WNW 10
11.07.2019 19:00:00 23,0 14,0 16 9 WNW 10
11.07.2019 18:00:00 24,0 13,0 21 11 W 10
11.07.2019 17:00:00 25,0 13,0 21 11 WNW 10
11.07.2019 16:00:00 24,0 15,0 11 6 NW 10
11.07.2019 15:00:00 24,0 15,0 5 3 - 10
11.07.2019 14:00:00 24,0 16,0 13 7 SSW 10
11.07.2019 13:00:00 22,0 15,0 9 5 SSW 10
11.07.2019 12:00:00 20,0 15,0 9 5 S 10

tt = Température de l'air
td = dewpoint
ff = Vitesse du vent
dd = Direction du vent
vv = visibility

stations d'obs. à proximité